createdAt,value
2022-11-24T00:01:30.696Z,-1.65
2022-11-24T00:04:06.436Z,-1.69
2022-11-24T00:06:36.081Z,-1.79
2022-11-24T00:09:05.590Z,-1.69
2022-11-24T00:11:36.329Z,-1.68
2022-11-24T00:14:06.414Z,-1.68
2022-11-24T00:16:37.419Z,-1.72
2022-11-24T00:19:13.613Z,-1.75
2022-11-24T00:21:45.600Z,-1.79
2022-11-24T00:24:14.145Z,-1.83
2022-11-24T00:26:43.531Z,-1.87
2022-11-24T00:29:12.815Z,-1.90
2022-11-24T00:31:42.357Z,-1.91
2022-11-24T00:34:13.166Z,-1.91
2022-11-24T00:36:42.653Z,-1.91
2022-11-24T00:39:15.530Z,-1.90
2022-11-24T00:41:44.585Z,-1.89
2022-11-24T00:44:13.239Z,-1.91
2022-11-24T00:46:41.958Z,-1.86
2022-11-24T00:49:10.552Z,-1.83
2022-11-24T00:51:39.275Z,-1.89
2022-11-24T00:54:07.931Z,-1.77
2022-11-24T00:56:36.421Z,-1.77
2022-11-24T00:59:04.936Z,-1.78
2022-11-24T01:01:33.523Z,-1.88
2022-11-24T01:04:02.608Z,-1.82
2022-11-24T01:06:32.877Z,-1.84
2022-11-24T01:09:02.156Z,-1.85
2022-11-24T01:11:53.464Z,-1.86
2022-11-24T01:14:25.061Z,-1.85
2022-11-24T01:16:54.455Z,-1.93
2022-11-24T01:19:24.004Z,-1.79
2022-11-24T01:21:52.666Z,-1.78
2022-11-24T01:24:21.297Z,-1.79
2022-11-24T01:26:49.826Z,-1.79
2022-11-24T01:29:18.244Z,-1.76
2022-11-24T01:31:46.675Z,-1.74
2022-11-24T01:34:15.150Z,-1.74
2022-11-24T01:36:43.808Z,-1.75
2022-11-24T01:39:12.500Z,-1.75
2022-11-24T01:41:40.972Z,-1.73
2022-11-24T01:44:31.184Z,-1.71
2022-11-24T01:47:05.741Z,-1.70
2022-11-24T01:49:39.779Z,-1.72
2022-11-24T01:52:41.283Z,-1.72
2022-11-24T01:55:16.465Z,-1.68
2022-11-24T01:57:56.996Z,-1.66
2022-11-24T02:00:25.831Z,-1.68
2022-11-24T02:02:54.449Z,-1.70
2022-11-24T02:05:29.084Z,-1.66
2022-11-24T02:08:00.962Z,-1.61
2022-11-24T02:10:30.100Z,-1.62
2022-11-24T02:13:00.960Z,-1.60
2022-11-24T02:15:29.979Z,-1.49
2022-11-24T02:17:59.486Z,-1.48
2022-11-24T02:20:27.863Z,-1.52
2022-11-24T02:23:20.962Z,-1.52
2022-11-24T02:26:24.506Z,-1.53
2022-11-24T02:28:53.187Z,-1.54
2022-11-24T02:31:21.909Z,-1.52
2022-11-24T02:33:50.759Z,-1.48
2022-11-24T02:36:19.235Z,-1.44
2022-11-24T02:38:47.626Z,-1.39
2022-11-24T02:41:22.703Z,-1.37
2022-11-24T02:44:00.604Z,-1.38
2022-11-24T02:46:29.045Z,-1.38
2022-11-24T02:48:57.526Z,-1.40
2022-11-24T02:51:25.871Z,-1.41
2022-11-24T02:53:54.171Z,-1.41
2022-11-24T02:56:22.608Z,-1.39
2022-11-24T02:58:50.865Z,-1.39
2022-11-24T03:01:19.272Z,-1.41
2022-11-24T03:03:47.676Z,-1.41
2022-11-24T03:06:15.964Z,-1.49
2022-11-24T03:08:44.373Z,-1.43
2022-11-24T03:11:12.800Z,-1.45
2022-11-24T03:13:41.176Z,-1.43
2022-11-24T03:16:10.783Z,-1.42
2022-11-24T03:18:39.392Z,-1.42
2022-11-24T03:21:07.687Z,-1.44
2022-11-24T03:23:36.244Z,-1.45
2022-11-24T03:26:13.281Z,-1.45
2022-11-24T03:28:41.783Z,-1.51
2022-11-24T03:31:11.118Z,-1.43
2022-11-24T03:33:39.955Z,-1.41
2022-11-24T03:36:09.186Z,-1.45
2022-11-24T03:38:37.463Z,-1.51
2022-11-24T03:41:06.001Z,-1.54
2022-11-24T03:43:37.810Z,-1.57
2022-11-24T03:46:09.239Z,-1.60
2022-11-24T03:48:37.539Z,-1.59
2022-11-24T03:51:06.145Z,-1.60
2022-11-24T03:53:34.700Z,-1.61
2022-11-24T03:56:04.095Z,-1.62
2022-11-24T03:58:32.685Z,-1.61
2022-11-24T04:01:01.316Z,-1.57
2022-11-24T04:03:29.990Z,-1.52
2022-11-24T04:05:58.342Z,-1.46
2022-11-24T04:08:26.659Z,-1.44
2022-11-24T04:10:54.986Z,-1.49
2022-11-24T04:13:26.351Z,-1.36
2022-11-24T04:15:55.020Z,-1.34
2022-11-24T04:18:23.583Z,-1.34
2022-11-24T04:20:52.774Z,-1.34
2022-11-24T04:23:21.114Z,-1.36
2022-11-24T04:25:49.579Z,-1.39
2022-11-24T04:28:17.961Z,-1.43
2022-11-24T04:30:46.329Z,-1.47
2022-11-24T04:33:14.643Z,-1.50
2022-11-24T04:35:43.077Z,-1.54
2022-11-24T04:38:11.363Z,-1.56
2022-11-24T04:40:40.017Z,-1.57
2022-11-24T04:43:09.586Z,-1.56
2022-11-24T04:45:38.379Z,-1.54
2022-11-24T04:48:06.853Z,-1.52
2022-11-24T04:50:37.022Z,-1.52
2022-11-24T04:53:05.447Z,-1.52
2022-11-24T04:55:33.775Z,-1.60
2022-11-24T04:58:02.701Z,-1.48
2022-11-24T05:00:30.996Z,-1.46
2022-11-24T05:02:59.378Z,-1.47
2022-11-24T05:05:27.701Z,-1.49
2022-11-24T05:07:56.262Z,-1.56
2022-11-24T05:10:36.940Z,-1.47
2022-11-24T05:13:10.449Z,-1.46
2022-11-24T05:15:39.958Z,-1.44
2022-11-24T05:18:11.293Z,-1.44
2022-11-24T05:20:39.701Z,-1.59
2022-11-24T05:23:08.766Z,-1.43
2022-11-24T05:25:37.166Z,-1.45
2022-11-24T05:28:10.097Z,-1.46
2022-11-24T05:30:40.216Z,-1.45
2022-11-24T05:33:12.495Z,-1.42
2022-11-24T05:35:41.742Z,-1.37
2022-11-24T05:38:10.222Z,-1.34
2022-11-24T05:40:38.764Z,-1.31
2022-11-24T05:43:15.520Z,-1.29
2022-11-24T05:45:44.959Z,-1.28
2022-11-24T05:48:15.173Z,-1.26
2022-11-24T05:50:43.600Z,-1.24
2022-11-24T05:53:13.457Z,-1.25
2022-11-24T05:55:42.985Z,-1.34
2022-11-24T05:58:11.229Z,-1.28
2022-11-24T06:00:39.358Z,-1.29
2022-11-24T06:03:09.008Z,-1.28
2022-11-24T06:05:37.820Z,-1.27
2022-11-24T06:08:06.025Z,-1.27
2022-11-24T06:10:34.261Z,-1.27
2022-11-24T06:13:06.335Z,-1.28
2022-11-24T06:15:37.967Z,-1.29
2022-11-24T06:18:06.168Z,-1.25
2022-11-24T06:20:34.699Z,-1.23
2022-11-24T06:23:02.834Z,-1.24
2022-11-24T06:25:31.128Z,-1.25
2022-11-24T06:28:02.788Z,-1.27
2022-11-24T06:30:31.114Z,-1.30
2022-11-24T06:32:59.278Z,-1.32
2022-11-24T06:35:27.532Z,-1.33
2022-11-24T06:37:56.282Z,-1.35
2022-11-24T06:40:24.748Z,-1.34
2022-11-24T06:42:53.017Z,-1.30
2022-11-24T06:45:21.256Z,-1.30
2022-11-24T06:47:49.482Z,-1.31
2022-11-24T06:50:17.717Z,-1.33
2022-11-24T06:52:46.074Z,-1.32
2022-11-24T06:55:14.351Z,-1.31
2022-11-24T06:57:42.611Z,-1.40
2022-11-24T07:00:11.317Z,-1.26
2022-11-24T07:02:45.427Z,-1.25
2022-11-24T07:05:14.866Z,-1.25
2022-11-24T07:07:43.190Z,-1.25
2022-11-24T07:10:11.425Z,-1.24
2022-11-24T07:12:39.685Z,-1.30
2022-11-24T07:15:20.569Z,-1.22
2022-11-24T07:17:49.606Z,-1.18
2022-11-24T07:20:17.881Z,-1.16
2022-11-24T07:22:46.424Z,-1.17
2022-11-24T07:25:14.749Z,-1.22
2022-11-24T07:27:43.128Z,-1.26
2022-11-24T07:30:11.517Z,-1.27
2022-11-24T07:32:39.990Z,-1.33
2022-11-24T07:35:08.512Z,-1.25
2022-11-24T07:37:36.716Z,-1.25
2022-11-24T07:40:05.465Z,-1.24
2022-11-24T07:42:33.688Z,-1.26
2022-11-24T07:45:02.091Z,-1.29
2022-11-24T07:47:30.549Z,-1.32
2022-11-24T07:49:58.789Z,-1.44
2022-11-24T07:52:27.217Z,-1.27
2022-11-24T07:54:55.536Z,-1.25
2022-11-24T07:57:23.883Z,-1.25
2022-11-24T07:59:52.608Z,-1.24
2022-11-24T08:02:21.340Z,-1.22
2022-11-24T08:04:49.646Z,-1.22
2022-11-24T08:07:18.360Z,-1.22
2022-11-24T08:09:47.133Z,-1.20
2022-11-24T08:12:17.593Z,-1.15
2022-11-24T08:14:46.047Z,-1.13
2022-11-24T08:17:15.400Z,-1.13
2022-11-24T08:19:44.658Z,-1.10
2022-11-24T08:22:13.070Z,-1.06
2022-11-24T08:24:46.668Z,-1.03
2022-11-24T08:27:16.255Z,-1.08
2022-11-24T08:29:45.264Z,-1.01
2022-11-24T08:32:20.446Z,-1.00
2022-11-24T08:34:52.093Z,-0.95
2022-11-24T08:37:20.983Z,-0.92
2022-11-24T08:39:49.475Z,-0.91
2022-11-24T08:42:17.908Z,-0.91
2022-11-24T08:44:46.266Z,-0.99
2022-11-24T08:47:14.639Z,-0.87
2022-11-24T08:49:42.968Z,-0.88
2022-11-24T08:52:11.579Z,-0.87
2022-11-24T08:54:40.998Z,-0.86
2022-11-24T08:57:09.416Z,-0.86
2022-11-24T08:59:37.837Z,-0.84
2022-11-24T09:02:06.476Z,-0.83
2022-11-24T09:04:35.202Z,-0.82
2022-11-24T09:07:04.047Z,-0.87
2022-11-24T09:09:32.395Z,-0.82
2022-11-24T09:12:01.235Z,-0.85
2022-11-24T09:14:29.929Z,-0.85
2022-11-24T09:16:58.645Z,-0.83
2022-11-24T09:19:26.937Z,-0.80
2022-11-24T09:21:55.437Z,-0.78
2022-11-24T09:24:24.045Z,-0.78
2022-11-24T09:26:55.565Z,-0.77
2022-11-24T09:29:24.034Z,-0.77
2022-11-24T09:31:52.316Z,-0.76
2022-11-24T09:34:20.549Z,-0.73
2022-11-24T09:36:48.705Z,-0.72
2022-11-24T09:39:16.841Z,-0.70
2022-11-24T09:41:48.617Z,-0.70
2022-11-24T09:44:46.265Z,-0.72
2022-11-24T09:47:56.237Z,-0.73
2022-11-24T09:50:27.955Z,-0.76
2022-11-24T09:53:03.912Z,-0.73
2022-11-24T09:55:42.181Z,-0.73
2022-11-24T09:58:35.829Z,-0.72
2022-11-24T10:01:21.002Z,-0.67
2022-11-24T10:03:51.314Z,-0.68
2022-11-24T10:06:24.426Z,-0.74
2022-11-24T10:09:11.772Z,-0.73
2022-11-24T10:12:16.843Z,-0.72
2022-11-24T10:15:12.802Z,-0.71
2022-11-24T10:18:02.369Z,-0.69
2022-11-24T10:20:31.248Z,-0.66
2022-11-24T10:23:20.420Z,-0.61
2022-11-24T10:25:59.704Z,-0.55
2022-11-24T10:28:38.685Z,-0.51
2022-11-24T10:31:24.740Z,-0.51
2022-11-24T10:33:53.034Z,-0.49
2022-11-24T10:36:50.303Z,-0.47
2022-11-24T10:39:21.954Z,-0.44
2022-11-24T10:42:12.647Z,-0.45
2022-11-24T10:44:42.491Z,-0.45
2022-11-24T10:47:22.994Z,-0.46
2022-11-24T10:50:28.572Z,-0.48
2022-11-24T10:53:25.766Z,-0.50
2022-11-24T10:55:56.846Z,-0.48
2022-11-24T10:58:32.859Z,-0.48
2022-11-24T11:01:13.386Z,-0.48
2022-11-24T11:03:50.011Z,-0.44
2022-11-24T11:06:30.271Z,-0.43
2022-11-24T11:09:07.522Z,-0.46
2022-11-24T11:11:38.794Z,-0.47
2022-11-24T11:14:10.163Z,-0.48
2022-11-24T11:17:04.864Z,-0.49
2022-11-24T11:19:49.830Z,-0.48
2022-11-24T11:22:28.577Z,-0.44
2022-11-24T11:25:14.990Z,-0.41
2022-11-24T11:27:43.258Z,-0.37
2022-11-24T11:36:16.081Z,-0.28
2022-11-24T11:38:46.446Z,-0.31
2022-11-24T11:41:24.293Z,-0.37
2022-11-24T11:44:15.310Z,-0.43
2022-11-24T11:46:44.558Z,-0.46
2022-11-24T11:49:14.562Z,-0.48
2022-11-24T11:52:13.452Z,-0.49
2022-11-24T11:54:59.782Z,-0.51
2022-11-24T11:58:01.781Z,-0.52
2022-11-24T12:00:35.833Z,-0.51
2022-11-24T12:03:22.717Z,-0.60
2022-11-24T12:06:09.246Z,-0.54
2022-11-24T12:09:18.559Z,-0.53
2022-11-24T12:12:04.931Z,-0.54
2022-11-24T12:14:39.410Z,-0.51
2022-11-24T12:17:33.032Z,-0.56
2022-11-24T12:20:19.237Z,-0.44
2022-11-24T12:23:00.766Z,-0.39
2022-11-24T12:25:33.293Z,-0.38
2022-11-24T12:28:25.486Z,-0.36
2022-11-24T12:30:59.679Z,-0.37
2022-11-24T12:33:36.625Z,-0.37
2022-11-24T12:36:30.414Z,-0.38
2022-11-24T12:39:07.020Z,-0.38
2022-11-24T12:42:05.297Z,-0.37
2022-11-24T12:44:42.458Z,-0.40
2022-11-24T12:47:20.269Z,-0.40
2022-11-24T12:49:51.683Z,-0.38
2022-11-24T12:52:26.277Z,-0.38
2022-11-24T12:54:56.101Z,-0.46
2022-11-24T12:57:59.625Z,-0.35
2022-11-24T13:00:40.286Z,-0.38
2022-11-24T13:03:39.186Z,-0.43
2022-11-24T13:06:21.350Z,-0.50
2022-11-24T13:08:50.208Z,-0.54
2022-11-24T13:11:21.129Z,-0.54
2022-11-24T13:14:00.713Z,-0.56
2022-11-24T13:16:41.092Z,-0.60
2022-11-24T13:19:23.583Z,-0.61
2022-11-24T13:22:10.928Z,-0.60
2022-11-24T13:24:40.266Z,-0.58
2022-11-24T13:27:17.992Z,-0.57
2022-11-24T13:29:47.933Z,-0.57
2022-11-24T13:32:19.428Z,-0.55
2022-11-24T13:34:55.016Z,-0.56
2022-11-24T13:37:33.574Z,-0.53
2022-11-24T13:40:17.876Z,-0.61
2022-11-24T13:42:55.154Z,-0.54
2022-11-24T13:45:39.449Z,-0.57
2022-11-24T13:48:20.237Z,-0.61
2022-11-24T13:50:52.243Z,-0.66
2022-11-24T13:53:44.107Z,-0.65
2022-11-24T13:56:13.030Z,-0.63
2022-11-24T13:58:43.160Z,-0.68
2022-11-24T14:01:23.577Z,-0.57
2022-11-24T14:06:52.335Z,-0.54
2022-11-24T14:09:29.588Z,-0.52
2022-11-24T14:11:59.511Z,-0.53
2022-11-24T14:14:27.896Z,-0.53
2022-11-24T14:17:23.140Z,-0.53
2022-11-24T14:19:53.796Z,-0.61
2022-11-24T14:22:41.547Z,-0.53
2022-11-24T14:25:31.347Z,-0.57
2022-11-24T14:28:00.627Z,-0.62
2022-11-24T14:30:29.657Z,-0.67
2022-11-24T14:32:59.932Z,-0.68
2022-11-24T14:35:34.234Z,-0.69
2022-11-24T14:38:05.335Z,-0.68
2022-11-24T14:40:41.092Z,-0.67
2022-11-24T14:43:26.235Z,-0.68
2022-11-24T14:46:02.722Z,-0.68
2022-11-24T14:48:36.414Z,-0.68
2022-11-24T14:51:10.963Z,-0.65
2022-11-24T14:53:47.375Z,-0.64
2022-11-24T14:56:31.292Z,-0.64
2022-11-24T14:59:00.093Z,-0.66
2022-11-24T15:01:29.433Z,-0.66
2022-11-24T15:04:26.513Z,-0.65
2022-11-24T15:07:05.531Z,-0.64
2022-11-24T15:09:43.913Z,-0.64
2022-11-24T15:12:29.071Z,-0.66
2022-11-24T15:15:23.050Z,-0.66
2022-11-24T15:18:00.397Z,-0.63
2022-11-24T15:20:35.391Z,-0.65
2022-11-24T15:23:33.218Z,-0.66
2022-11-24T15:26:01.799Z,-0.65
2022-11-24T15:28:31.557Z,-0.67
2022-11-24T15:31:02.360Z,-0.68
2022-11-24T15:33:31.942Z,-0.68
2022-11-24T15:36:00.770Z,-0.75
2022-11-24T15:38:29.310Z,-0.71
2022-11-24T15:41:00.437Z,-0.60
2022-11-24T15:43:38.807Z,-0.60
2022-11-24T15:46:08.990Z,-0.61
2022-11-24T15:48:37.658Z,-0.60
2022-11-24T15:51:09.002Z,-0.58
2022-11-24T15:53:45.364Z,-0.60
2022-11-24T15:56:26.509Z,-0.51
2022-11-24T15:58:55.119Z,-0.51
2022-11-24T16:01:24.801Z,-0.49
2022-11-24T16:03:53.364Z,-0.48
2022-11-24T16:06:25.153Z,-0.48
2022-11-24T16:08:54.840Z,-0.46
2022-11-24T16:11:24.047Z,-0.45
2022-11-24T16:13:54.232Z,-0.48
2022-11-24T16:16:24.998Z,-0.53
2022-11-24T16:18:53.623Z,-0.75
2022-11-24T16:21:22.000Z,-0.59
2022-11-24T16:23:50.297Z,-0.58
2022-11-24T16:26:19.144Z,-0.59
2022-11-24T16:28:47.484Z,-0.59
2022-11-24T16:31:16.481Z,-0.58
2022-11-24T16:33:46.579Z,-0.56
2022-11-24T16:36:15.269Z,-0.62
2022-11-24T16:38:44.055Z,-0.55
2022-11-24T16:41:13.161Z,-0.54
2022-11-24T16:43:41.587Z,-0.54
2022-11-24T16:46:21.322Z,-0.52
2022-11-24T16:48:52.855Z,-0.50
2022-11-24T16:51:23.177Z,-0.50
2022-11-24T16:54:00.857Z,-0.49
2022-11-24T16:56:30.859Z,-0.48
2022-11-24T16:58:59.510Z,-0.47
2022-11-24T17:01:27.986Z,-0.46
2022-11-24T17:03:56.839Z,-0.45
2022-11-24T17:06:27.003Z,-0.46
2022-11-24T17:08:55.909Z,-0.58
2022-11-24T17:11:26.150Z,-0.57
2022-11-24T17:13:56.869Z,-0.67
2022-11-24T17:16:26.244Z,-0.66
2022-11-24T17:18:54.690Z,-0.57
2022-11-24T17:21:25.680Z,-0.57
2022-11-24T17:23:55.768Z,-0.57
2022-11-24T17:26:25.364Z,-0.55
2022-11-24T17:28:54.424Z,-0.53
2022-11-24T17:31:35.725Z,-0.51
2022-11-24T17:34:06.388Z,-0.49
2022-11-24T17:36:35.299Z,-0.47
2022-11-24T17:39:05.545Z,-0.45
2022-11-24T17:41:34.695Z,-0.41
2022-11-24T17:44:03.078Z,-0.40
2022-11-24T17:46:31.949Z,-0.39
2022-11-24T17:49:00.541Z,-0.35
2022-11-24T17:51:29.133Z,-0.32
2022-11-24T17:53:57.769Z,-0.29
2022-11-24T17:56:27.777Z,-0.28
2022-11-24T17:59:00.915Z,-0.26
2022-11-24T18:01:31.617Z,-0.27
2022-11-24T18:04:00.321Z,-0.27
2022-11-24T18:06:29.132Z,-0.29
2022-11-24T18:08:58.400Z,-0.26
2022-11-24T18:11:31.872Z,-0.34
2022-11-24T18:14:03.364Z,-0.25
2022-11-24T18:16:34.391Z,-0.29
2022-11-24T18:19:09.110Z,-0.32
2022-11-24T18:21:40.180Z,-0.32
2022-11-24T18:24:10.147Z,-0.32
2022-11-24T18:26:39.545Z,-0.31
2022-11-24T18:29:08.502Z,-0.27
2022-11-24T18:31:37.724Z,-0.25
2022-11-24T18:34:06.908Z,-0.23
2022-11-24T18:36:36.061Z,-0.32
2022-11-24T18:39:06.700Z,-0.39
2022-11-24T18:41:35.464Z,-0.22
2022-11-24T18:44:08.332Z,-0.24
2022-11-24T18:46:37.879Z,-0.25
2022-11-24T18:49:07.439Z,-0.30
2022-11-24T18:51:36.281Z,-0.23
2022-11-24T18:54:05.683Z,-0.22
2022-11-24T18:56:34.289Z,-0.21
2022-11-24T18:59:02.748Z,-0.20
2022-11-24T19:01:32.382Z,-0.18
2022-11-24T19:04:03.143Z,-0.21
2022-11-24T19:06:34.116Z,-0.24
2022-11-24T19:09:14.834Z,-0.23
2022-11-24T19:11:45.760Z,-0.22
2022-11-24T19:14:17.640Z,-0.23
2022-11-24T19:16:48.195Z,-0.26
2022-11-24T19:19:17.471Z,-0.28
2022-11-24T19:21:46.064Z,-0.27
2022-11-24T19:24:14.345Z,-0.24
2022-11-24T19:26:42.918Z,-0.24
2022-11-24T19:29:11.584Z,-0.26
2022-11-24T19:31:40.373Z,-0.26
2022-11-24T19:34:08.940Z,-0.26
2022-11-24T19:36:37.776Z,-0.24
2022-11-24T19:39:07.215Z,-0.23
2022-11-24T19:41:35.745Z,-0.21
2022-11-24T19:44:04.231Z,-0.23
2022-11-24T19:46:33.602Z,-0.21
2022-11-24T19:49:02.767Z,-0.20
2022-11-24T19:51:34.259Z,-0.19
2022-11-24T19:54:04.267Z,-0.20
2022-11-24T19:56:35.176Z,-0.20
2022-11-24T19:59:05.940Z,-0.19
2022-11-24T20:01:40.289Z,-0.18
2022-11-24T20:04:12.675Z,-0.31
2022-11-24T20:06:43.984Z,-0.13
2022-11-24T20:09:16.113Z,-0.12
2022-11-24T20:11:45.578Z,-0.21
2022-11-24T20:14:16.503Z,-0.13
2022-11-24T20:16:47.122Z,-0.13
2022-11-24T20:19:17.409Z,-0.12
2022-11-24T20:21:48.030Z,-0.13
2022-11-24T20:24:22.497Z,-0.14
2022-11-24T20:26:54.419Z,-0.14
2022-11-24T20:29:23.092Z,-0.15
2022-11-24T20:31:54.511Z,-0.14
2022-11-24T20:34:24.020Z,-0.17
2022-11-24T20:36:55.821Z,-0.16
2022-11-24T20:49:44.337Z,-0.36
2022-11-24T20:52:13.081Z,-0.39
2022-11-24T20:54:41.464Z,-0.38
2022-11-24T20:57:10.510Z,-0.47
2022-11-24T20:59:39.164Z,-0.36
2022-11-24T21:02:07.605Z,-0.37
2022-11-24T21:04:39.839Z,-0.36
2022-11-24T21:07:08.319Z,-0.38
2022-11-24T21:09:36.701Z,-0.33
2022-11-24T21:12:06.069Z,-0.32
2022-11-24T21:14:35.467Z,-0.32
2022-11-24T21:17:03.893Z,-0.31
2022-11-24T21:19:32.254Z,-0.40
2022-11-24T21:22:00.765Z,-0.31
2022-11-24T21:24:31.078Z,-0.32
2022-11-24T21:26:59.365Z,-0.32
2022-11-24T21:29:27.829Z,-0.33
2022-11-24T21:31:58.070Z,-0.42
2022-11-24T21:34:26.800Z,-0.32
2022-11-24T21:36:55.142Z,-0.30
2022-11-24T21:39:23.606Z,-0.33
2022-11-24T21:41:51.972Z,-0.35
2022-11-24T21:44:20.268Z,-0.36
2022-11-24T21:46:54.318Z,-0.38
2022-11-24T21:49:24.192Z,-0.45
2022-11-24T21:51:56.003Z,-0.34
2022-11-24T21:54:25.323Z,-0.35
2022-11-24T21:56:54.185Z,-0.35
2022-11-24T21:59:23.000Z,-0.35
2022-11-24T22:01:51.864Z,-0.33
2022-11-24T22:04:20.319Z,-0.40
2022-11-24T22:06:48.686Z,-0.30
2022-11-24T22:09:18.507Z,-0.29
2022-11-24T22:11:49.511Z,-0.28
2022-11-24T22:14:18.495Z,-0.27
2022-11-24T22:16:50.536Z,-0.26
2022-11-24T22:19:19.490Z,-0.25
2022-11-24T22:21:48.112Z,-0.25
2022-11-24T22:24:16.883Z,-0.26
2022-11-24T22:26:45.248Z,-0.25
2022-11-24T22:29:13.543Z,-0.28
2022-11-24T22:31:41.950Z,-0.29
2022-11-24T22:34:10.394Z,-0.28
2022-11-24T22:36:38.770Z,-0.27
2022-11-24T22:39:11.150Z,-0.26
2022-11-24T22:41:39.554Z,-0.28
2022-11-24T22:44:08.137Z,-0.37
2022-11-24T22:46:36.475Z,-0.28
2022-11-24T22:49:04.843Z,-0.27
2022-11-24T22:51:34.983Z,-0.25
2022-11-24T22:54:05.280Z,-0.26
2022-11-24T22:56:34.365Z,-0.29
2022-11-24T22:59:04.702Z,-0.49
2022-11-24T23:01:34.196Z,-0.36
2022-11-24T23:04:04.149Z,-0.36
2022-11-24T23:06:33.916Z,-0.34
2022-11-24T23:09:03.745Z,-0.31
2022-11-24T23:11:38.191Z,-0.27
2022-11-24T23:14:11.905Z,-0.26
2022-11-24T23:16:40.399Z,-0.31
2022-11-24T23:19:09.523Z,-0.35
2022-11-24T23:21:38.895Z,-0.33
2022-11-24T23:24:08.717Z,-0.32
2022-11-24T23:26:40.197Z,-0.30
2022-11-24T23:29:10.257Z,-0.28
2022-11-24T23:31:40.360Z,-0.27
2022-11-24T23:34:09.527Z,-0.27
2022-11-24T23:36:38.310Z,-0.25
2022-11-24T23:39:09.264Z,-0.27
2022-11-24T23:41:37.998Z,-0.28
2022-11-24T23:44:07.201Z,-0.29
2022-11-24T23:46:35.828Z,-0.34
2022-11-24T23:49:04.812Z,-0.37
2022-11-24T23:51:33.612Z,-0.43
2022-11-24T23:56:47.606Z,-0.48
2022-11-24T23:59:17.610Z,-0.50
